Ocoee 1 Observed Data For Previous 48 Hours

Caption
Day and Hour Reservoir Elevation (behind dam)* Tailwater Elevation (below dam)* Average Hourly Discharge*
11/17/2017 2 AM EST 828.47 713.46 11
11/17/2017 3 AM EST 828.47 714.91 646
11/17/2017 4 AM EST 828.47 716.08 1,327
11/17/2017 5 AM EST 828.44 716.96 2,019
11/17/2017 6 AM EST 828.39 717.72 2,160
11/17/2017 7 AM EST 828.33 717.88 2,724
11/17/2017 8 AM EST 828.26 717.88 2,715
11/17/2017 9 AM EST 828.19 717.87 2,720
11/17/2017 10 AM EST 828.15 716.98 2,024
11/17/2017 11 AM EST 828.14 715.94 1,329
11/17/2017 12 PM EST 828.15 714.82 650
11/17/2017 1 PM EST 828.17 714.82 644
11/17/2017 2 PM EST 828.19 714.82 646
11/17/2017 3 PM EST 828.23 713.16 4
11/17/2017 4 PM EST 828.28 713.14 0
11/17/2017 5 PM EST 828.32 713.43 10
11/17/2017 6 PM EST 828.33 714.94 646
11/17/2017 7 PM EST 828.33 715.93 1,313
11/17/2017 8 PM EST 828.33 715.94 1,323
11/17/2017 9 PM EST 828.32 715.94 1,321
11/17/2017 10 PM EST 828.31 715.94 1,322
11/17/2017 11 PM EST 828.33 714.82 652
11/18/2017 12 AM EST 828.37 713.16 4
11/18/2017 1 AM EST 828.42 713.14 0
11/18/2017 2 AM EST 828.46 713.41 8
11/18/2017 3 AM EST 828.48 714.81 644
11/18/2017 4 AM EST 828.49 714.81 643
11/18/2017 5 AM EST 828.50 714.90 644
11/18/2017 6 AM EST 828.50 716.13 1,328
11/18/2017 7 AM EST 828.46 716.95 2,015
11/18/2017 8 AM EST 828.45 716.11 1,337
11/18/2017 9 AM EST 828.41 716.97 2,019
11/18/2017 10 AM EST 828.37 716.97 2,017
11/18/2017 11 AM EST 828.33 716.98 2,020
11/18/2017 12 PM EST 828.31 716.96 2,014
11/18/2017 1 PM EST 828.29 715.93 1,327
11/18/2017 2 PM EST 828.29 715.93 1,320
11/18/2017 3 PM EST 828.28 715.94 1,318
11/18/2017 4 PM EST 828.26 716.15 1,336
11/18/2017 5 PM EST 828.23 716.97 2,013
11/18/2017 6 PM EST 828.18 716.98 2,017
11/18/2017 7 PM EST 828.13 716.97 2,017
11/18/2017 8 PM EST 828.09 717.00 2,025
11/18/2017 9 PM EST 828.08 717.00 2,037
11/18/2017 10 PM EST 828.12 717.01 2,040
11/18/2017 11 PM EST 828.10 715.99 1,342
11/19/2017 12 AM EST 828.14 713.17 9
11/19/2017 1 AM EST 828.19 713.12 0
11/19/2017 2 AM EST 828.26 713.39 9
11/19/2017 3 AM EST 828.25 713.91 601
11/19/2017 4 AM EST 828.30 713.14 0

Elevations are in feet above sea level. Discharges are in cubic feet per second and are reported at the end of the hour.